sensor_id;sensor_type;location;lat;lon;timestamp;temperature;humidity
9849;DHT22;4963;51.444;6.528;2023-04-06T00:00:09;5.40;99.90
9849;DHT22;4963;51.444;6.528;2023-04-06T00:02:38;5.40;99.90
9849;DHT22;4963;51.444;6.528;2023-04-06T00:05:05;5.40;99.90
9849;DHT22;4963;51.444;6.528;2023-04-06T00:07:33;5.40;99.90
9849;DHT22;4963;51.444;6.528;2023-04-06T00:10:00;5.40;99.90
9849;DHT22;4963;51.444;6.528;2023-04-06T00:12:27;5.50;99.90
9849;DHT22;4963;51.444;6.528;2023-04-06T00:14:54;5.30;99.90
9849;DHT22;4963;51.444;6.528;2023-04-06T00:17:21;5.30;99.90
9849;DHT22;4963;51.444;6.528;2023-04-06T00:19:49;5.20;99.90
9849;DHT22;4963;51.444;6.528;2023-04-06T00:22:16;5.20;99.90
9849;DHT22;4963;51.444;6.528;2023-04-06T00:24:43;5.30;99.90
9849;DHT22;4963;51.444;6.528;2023-04-06T00:27:10;5.20;99.90
9849;DHT22;4963;51.444;6.528;2023-04-06T00:29:37;5.30;99.90
9849;DHT22;4963;51.444;6.528;2023-04-06T00:32:04;5.10;99.90
9849;DHT22;4963;51.444;6.528;2023-04-06T00:34:31;5.20;99.90
9849;DHT22;4963;51.444;6.528;2023-04-06T00:36:59;5.10;99.90
9849;DHT22;4963;51.444;6.528;2023-04-06T00:39:26;5.10;99.90
9849;DHT22;4963;51.444;6.528;2023-04-06T00:41:53;5.10;99.90
9849;DHT22;4963;51.444;6.528;2023-04-06T00:44:20;5.10;99.90
9849;DHT22;4963;51.444;6.528;2023-04-06T00:46:48;5.00;99.90
9849;DHT22;4963;51.444;6.528;2023-04-06T00:49:15;5.00;99.90
9849;DHT22;4963;51.444;6.528;2023-04-06T00:51:42;5.00;99.90
9849;DHT22;4963;51.444;6.528;2023-04-06T00:54:10;5.00;99.90
9849;DHT22;4963;51.444;6.528;2023-04-06T00:56:37;5.00;99.90
9849;DHT22;4963;51.444;6.528;2023-04-06T00:59:04;5.00;99.90
9849;DHT22;4963;51.444;6.528;2023-04-06T01:01:31;5.00;99.90
9849;DHT22;4963;51.444;6.528;2023-04-06T01:03:58;5.00;99.90
9849;DHT22;4963;51.444;6.528;2023-04-06T01:06:25;5.00;99.90
9849;DHT22;4963;51.444;6.528;2023-04-06T01:08:52;4.90;99.90
9849;DHT22;4963;51.444;6.528;2023-04-06T01:11:21;4.90;99.90
9849;DHT22;4963;51.444;6.528;2023-04-06T01:13:48;4.90;99.90
9849;DHT22;4963;51.444;6.528;2023-04-06T01:16:15;4.90;99.90
9849;DHT22;4963;51.444;6.528;2023-04-06T01:18:42;4.80;99.90
9849;DHT22;4963;51.444;6.528;2023-04-06T01:21:09;4.90;99.90
9849;DHT22;4963;51.444;6.528;2023-04-06T01:23:44;4.90;99.90
9849;DHT22;4963;51.444;6.528;2023-04-06T01:26:12;4.90;99.90
9849;DHT22;4963;51.444;6.528;2023-04-06T01:28:39;4.90;99.90
9849;DHT22;4963;51.444;6.528;2023-04-06T01:31:06;4.60;99.90
9849;DHT22;4963;51.444;6.528;2023-04-06T01:33:34;4.70;99.90
9849;DHT22;4963;51.444;6.528;2023-04-06T01:36:01;4.70;99.90
9849;DHT22;4963;51.444;6.528;2023-04-06T01:38:28;4.70;99.90
9849;DHT22;4963;51.444;6.528;2023-04-06T01:40:56;4.70;99.90
9849;DHT22;4963;51.444;6.528;2023-04-06T01:43:23;4.70;99.90
9849;DHT22;4963;51.444;6.528;2023-04-06T01:45:50;4.70;99.90
9849;DHT22;4963;51.444;6.528;2023-04-06T01:48:17;4.70;99.90
9849;DHT22;4963;51.444;6.528;2023-04-06T01:50:44;4.60;99.90
9849;DHT22;4963;51.444;6.528;2023-04-06T01:53:11;4.60;99.90
9849;DHT22;4963;51.444;6.528;2023-04-06T01:55:37;4.60;99.90
9849;DHT22;4963;51.444;6.528;2023-04-06T01:58:06;4.50;99.90
9849;DHT22;4963;51.444;6.528;2023-04-06T02:00:33;4.50;99.90
9849;DHT22;4963;51.444;6.528;2023-04-06T02:03:00;4.50;99.90
9849;DHT22;4963;51.444;6.528;2023-04-06T02:05:29;4.40;99.90
9849;DHT22;4963;51.444;6.528;2023-04-06T02:07:55;4.40;99.90
9849;DHT22;4963;51.444;6.528;2023-04-06T02:10:23;4.30;99.90
9849;DHT22;4963;51.444;6.528;2023-04-06T02:12:50;4.30;99.90
9849;DHT22;4963;51.444;6.528;2023-04-06T02:15:18;4.40;99.90
9849;DHT22;4963;51.444;6.528;2023-04-06T02:17:45;4.30;99.90
9849;DHT22;4963;51.444;6.528;2023-04-06T02:20:12;4.30;99.90
9849;DHT22;4963;51.444;6.528;2023-04-06T02:22:39;4.30;99.90
9849;DHT22;4963;51.444;6.528;2023-04-06T02:25:06;4.30;99.90
9849;DHT22;4963;51.444;6.528;2023-04-06T02:27:34;4.30;99.90
9849;DHT22;4963;51.444;6.528;2023-04-06T02:30:01;4.30;99.90
9849;DHT22;4963;51.444;6.528;2023-04-06T02:32:29;4.40;99.90
9849;DHT22;4963;51.444;6.528;2023-04-06T02:34:56;4.30;99.90
9849;DHT22;4963;51.444;6.528;2023-04-06T02:37:23;4.30;99.90
9849;DHT22;4963;51.444;6.528;2023-04-06T02:39:50;4.30;99.90
9849;DHT22;4963;51.444;6.528;2023-04-06T02:42:17;4.20;99.90
9849;DHT22;4963;51.444;6.528;2023-04-06T02:44:44;4.20;99.90
9849;DHT22;4963;51.444;6.528;2023-04-06T02:47:11;4.10;99.90
9849;DHT22;4963;51.444;6.528;2023-04-06T02:49:39;4.50;99.90
9849;DHT22;4963;51.444;6.528;2023-04-06T02:52:06;4.20;99.90
9849;DHT22;4963;51.444;6.528;2023-04-06T02:54:32;4.30;99.90
9849;DHT22;4963;51.444;6.528;2023-04-06T02:56:59;4.30;99.90
9849;DHT22;4963;51.444;6.528;2023-04-06T02:59:26;4.20;99.90
9849;DHT22;4963;51.444;6.528;2023-04-06T03:01:53;4.20;99.90
9849;DHT22;4963;51.444;6.528;2023-04-06T03:04:20;4.20;99.90
9849;DHT22;4963;51.444;6.528;2023-04-06T03:06:53;4.10;99.90
9849;DHT22;4963;51.444;6.528;2023-04-06T03:09:20;4.10;99.90
9849;DHT22;4963;51.444;6.528;2023-04-06T03:11:47;4.20;99.90
9849;DHT22;4963;51.444;6.528;2023-04-06T03:14:14;4.20;99.90
9849;DHT22;4963;51.444;6.528;2023-04-06T03:16:42;4.20;99.90
9849;DHT22;4963;51.444;6.528;2023-04-06T03:19:09;4.20;99.90
9849;DHT22;4963;51.444;6.528;2023-04-06T03:21:36;4.30;99.90
9849;DHT22;4963;51.444;6.528;2023-04-06T03:24:06;4.30;99.90
9849;DHT22;4963;51.444;6.528;2023-04-06T03:26:33;4.30;99.90
9849;DHT22;4963;51.444;6.528;2023-04-06T03:29:00;4.30;99.90
9849;DHT22;4963;51.444;6.528;2023-04-06T03:31:27;4.40;99.90
9849;DHT22;4963;51.444;6.528;2023-04-06T03:33:53;4.30;99.90
9849;DHT22;4963;51.444;6.528;2023-04-06T03:36:20;4.30;99.90
9849;DHT22;4963;51.444;6.528;2023-04-06T03:38:47;4.30;99.90
9849;DHT22;4963;51.444;6.528;2023-04-06T03:41:15;4.40;99.90
9849;DHT22;4963;51.444;6.528;2023-04-06T03:43:42;4.30;99.90
9849;DHT22;4963;51.444;6.528;2023-04-06T03:46:09;4.40;99.90
9849;DHT22;4963;51.444;6.528;2023-04-06T03:48:36;4.30;99.90
9849;DHT22;4963;51.444;6.528;2023-04-06T03:51:04;4.30;99.90
9849;DHT22;4963;51.444;6.528;2023-04-06T03:53:30;4.30;99.90
9849;DHT22;4963;51.444;6.528;2023-04-06T03:55:57;4.20;99.90
9849;DHT22;4963;51.444;6.528;2023-04-06T03:58:25;4.20;99.90
9849;DHT22;4963;51.444;6.528;2023-04-06T04:00:52;4.20;99.90
9849;DHT22;4963;51.444;6.528;2023-04-06T04:03:19;4.20;99.90
9849;DHT22;4963;51.444;6.528;2023-04-06T04:05:47;4.20;99.90
9849;DHT22;4963;51.444;6.528;2023-04-06T04:08:13;4.40;99.90
9849;DHT22;4963;51.444;6.528;2023-04-06T04:10:40;4.20;99.90
9849;DHT22;4963;51.444;6.528;2023-04-06T04:13:07;4.10;99.90
9849;DHT22;4963;51.444;6.528;2023-04-06T04:15:35;4.10;99.90
9849;DHT22;4963;51.444;6.528;2023-04-06T04:18:03;4.10;99.90
9849;DHT22;4963;51.444;6.528;2023-04-06T04:20:29;4.20;99.90
9849;DHT22;4963;51.444;6.528;2023-04-06T04:22:56;4.10;99.90
9849;DHT22;4963;51.444;6.528;2023-04-06T04:25:23;4.20;99.90
9849;DHT22;4963;51.444;6.528;2023-04-06T04:27:50;4.20;99.90
9849;DHT22;4963;51.444;6.528;2023-04-06T04:30:17;4.20;99.90
9849;DHT22;4963;51.444;6.528;2023-04-06T04:32:45;4.20;99.90
9849;DHT22;4963;51.444;6.528;2023-04-06T04:35:12;4.20;99.90
9849;DHT22;4963;51.444;6.528;2023-04-06T04:37:41;4.20;99.90
9849;DHT22;4963;51.444;6.528;2023-04-06T04:40:09;4.10;99.90
9849;DHT22;4963;51.444;6.528;2023-04-06T04:42:36;4.10;99.90
9849;DHT22;4963;51.444;6.528;2023-04-06T04:45:03;4.10;99.90
9849;DHT22;4963;51.444;6.528;2023-04-06T04:47:30;4.10;99.90
9849;DHT22;4963;51.444;6.528;2023-04-06T04:49:58;4.20;99.90
9849;DHT22;4963;51.444;6.528;2023-04-06T04:52:25;4.20;99.90
9849;DHT22;4963;51.444;6.528;2023-04-06T04:54:52;4.20;99.90
9849;DHT22;4963;51.444;6.528;2023-04-06T04:57:18;4.10;99.90
9849;DHT22;4963;51.444;6.528;2023-04-06T04:59:45;4.20;99.90
9849;DHT22;4963;51.444;6.528;2023-04-06T05:02:13;4.20;99.90
9849;DHT22;4963;51.444;6.528;2023-04-06T05:04:40;4.20;99.90
9849;DHT22;4963;51.444;6.528;2023-04-06T05:07:08;4.10;99.90
9849;DHT22;4963;51.444;6.528;2023-04-06T05:09:35;4.20;99.90
9849;DHT22;4963;51.444;6.528;2023-04-06T05:12:03;4.10;99.90
9849;DHT22;4963;51.444;6.528;2023-04-06T05:14:30;4.10;99.90
9849;DHT22;4963;51.444;6.528;2023-04-06T05:16:56;4.20;99.90
9849;DHT22;4963;51.444;6.528;2023-04-06T05:19:23;4.20;99.90
9849;DHT22;4963;51.444;6.528;2023-04-06T05:21:50;4.10;99.90
9849;DHT22;4963;51.444;6.528;2023-04-06T05:24:18;4.10;99.90
9849;DHT22;4963;51.444;6.528;2023-04-06T05:26:45;4.00;99.90
9849;DHT22;4963;51.444;6.528;2023-04-06T05:29:12;4.00;99.90
9849;DHT22;4963;51.444;6.528;2023-04-06T05:31:39;4.00;99.90
9849;DHT22;4963;51.444;6.528;2023-04-06T05:34:06;4.00;99.90
9849;DHT22;4963;51.444;6.528;2023-04-06T05:36:34;3.90;99.90
9849;DHT22;4963;51.444;6.528;2023-04-06T05:39:01;4.00;99.90
9849;DHT22;4963;51.444;6.528;2023-04-06T05:41:29;4.10;99.90
9849;DHT22;4963;51.444;6.528;2023-04-06T05:43:56;3.90;99.90
9849;DHT22;4963;51.444;6.528;2023-04-06T05:46:23;4.00;99.90
9849;DHT22;4963;51.444;6.528;2023-04-06T05:48:50;4.10;99.90
9849;DHT22;4963;51.444;6.528;2023-04-06T05:51:17;4.10;99.90
9849;DHT22;4963;51.444;6.528;2023-04-06T05:53:46;4.10;99.90
9849;DHT22;4963;51.444;6.528;2023-04-06T05:56:13;4.10;99.90
9849;DHT22;4963;51.444;6.528;2023-04-06T05:58:41;4.10;99.90
9849;DHT22;4963;51.444;6.528;2023-04-06T06:01:08;4.20;99.90
9849;DHT22;4963;51.444;6.528;2023-04-06T06:03:35;4.20;99.90
9849;DHT22;4963;51.444;6.528;2023-04-06T06:06:03;4.20;99.90
9849;DHT22;4963;51.444;6.528;2023-04-06T06:08:30;4.20;99.90
9849;DHT22;4963;51.444;6.528;2023-04-06T06:10:57;4.30;99.90
9849;DHT22;4963;51.444;6.528;2023-04-06T06:13:24;4.30;99.90
9849;DHT22;4963;51.444;6.528;2023-04-06T06:15:52;4.30;99.90
9849;DHT22;4963;51.444;6.528;2023-04-06T06:18:19;4.30;99.90
9849;DHT22;4963;51.444;6.528;2023-04-06T06:20:46;4.40;99.90
9849;DHT22;4963;51.444;6.528;2023-04-06T06:23:13;4.40;99.90
9849;DHT22;4963;51.444;6.528;2023-04-06T06:25:40;4.60;99.90
9849;DHT22;4963;51.444;6.528;2023-04-06T06:28:07;4.60;99.90
9849;DHT22;4963;51.444;6.528;2023-04-06T06:30:34;4.50;99.90
9849;DHT22;4963;51.444;6.528;2023-04-06T06:33:02;4.70;99.90
9849;DHT22;4963;51.444;6.528;2023-04-06T06:35:29;4.80;99.90
9849;DHT22;4963;51.444;6.528;2023-04-06T06:37:56;4.90;99.90
9849;DHT22;4963;51.444;6.528;2023-04-06T06:40:23;5.00;99.90
9849;DHT22;4963;51.444;6.528;2023-04-06T06:42:51;5.10;99.90
9849;DHT22;4963;51.444;6.528;2023-04-06T06:45:18;5.20;99.90
9849;DHT22;4963;51.444;6.528;2023-04-06T06:47:45;5.40;99.90
9849;DHT22;4963;51.444;6.528;2023-04-06T06:50:14;5.40;99.90
9849;DHT22;4963;51.444;6.528;2023-04-06T06:52:41;5.70;99.90
9849;DHT22;4963;51.444;6.528;2023-04-06T06:55:09;5.80;99.90
9849;DHT22;4963;51.444;6.528;2023-04-06T06:57:36;5.90;99.90
9849;DHT22;4963;51.444;6.528;2023-04-06T07:00:05;6.10;99.90
9849;DHT22;4963;51.444;6.528;2023-04-06T07:02:34;6.20;99.90
9849;DHT22;4963;51.444;6.528;2023-04-06T07:05:01;6.20;99.90
9849;DHT22;4963;51.444;6.528;2023-04-06T07:07:29;6.40;99.90
9849;DHT22;4963;51.444;6.528;2023-04-06T07:09:56;6.50;99.90
9849;DHT22;4963;51.444;6.528;2023-04-06T07:12:23;6.60;99.90
9849;DHT22;4963;51.444;6.528;2023-04-06T07:14:50;6.70;99.90
9849;DHT22;4963;51.444;6.528;2023-04-06T07:17:17;6.80;99.90
9849;DHT22;4963;51.444;6.528;2023-04-06T07:19:44;6.90;99.90
9849;DHT22;4963;51.444;6.528;2023-04-06T07:22:11;7.00;99.90
9849;DHT22;4963;51.444;6.528;2023-04-06T07:24:40;7.20;99.90
9849;DHT22;4963;51.444;6.528;2023-04-06T07:27:07;7.40;99.90
9849;DHT22;4963;51.444;6.528;2023-04-06T07:29:33;7.60;99.90
9849;DHT22;4963;51.444;6.528;2023-04-06T07:32:00;7.80;99.90
9849;DHT22;4963;51.444;6.528;2023-04-06T07:34:27;8.10;99.90
9849;DHT22;4963;51.444;6.528;2023-04-06T07:36:54;8.20;99.90
9849;DHT22;4963;51.444;6.528;2023-04-06T07:39:22;8.30;99.90
9849;DHT22;4963;51.444;6.528;2023-04-06T07:41:50;8.30;99.90
9849;DHT22;4963;51.444;6.528;2023-04-06T07:44:17;8.40;99.90
9849;DHT22;4963;51.444;6.528;2023-04-06T07:46:44;8.30;99.90
9849;DHT22;4963;51.444;6.528;2023-04-06T07:49:11;8.30;99.90
9849;DHT22;4963;51.444;6.528;2023-04-06T07:51:38;8.30;99.90
9849;DHT22;4963;51.444;6.528;2023-04-06T07:54:05;8.60;99.90
9849;DHT22;4963;51.444;6.528;2023-04-06T07:56:32;8.40;99.90
9849;DHT22;4963;51.444;6.528;2023-04-06T07:59:00;8.30;99.90
9849;DHT22;4963;51.444;6.528;2023-04-06T08:01:28;8.30;99.90
9849;DHT22;4963;51.444;6.528;2023-04-06T08:03:55;8.40;99.90
9849;DHT22;4963;51.444;6.528;2023-04-06T08:06:22;8.50;99.90
9849;DHT22;4963;51.444;6.528;2023-04-06T08:08:49;8.60;99.90
9849;DHT22;4963;51.444;6.528;2023-04-06T08:11:16;8.60;99.90
9849;DHT22;4963;51.444;6.528;2023-04-06T08:13:43;8.80;99.90
9849;DHT22;4963;51.444;6.528;2023-04-06T08:16:11;8.90;99.90
9849;DHT22;4963;51.444;6.528;2023-04-06T08:18:38;9.00;99.90
9849;DHT22;4963;51.444;6.528;2023-04-06T08:21:05;9.10;99.90
9849;DHT22;4963;51.444;6.528;2023-04-06T08:23:32;9.10;99.90
9849;DHT22;4963;51.444;6.528;2023-04-06T08:25:59;9.10;99.90
9849;DHT22;4963;51.444;6.528;2023-04-06T08:28:26;9.20;99.90
9849;DHT22;4963;51.444;6.528;2023-04-06T08:30:53;9.40;99.90
9849;DHT22;4963;51.444;6.528;2023-04-06T08:33:21;9.60;99.90
9849;DHT22;4963;51.444;6.528;2023-04-06T08:35:48;9.60;99.90
9849;DHT22;4963;51.444;6.528;2023-04-06T08:38:15;9.70;99.90
9849;DHT22;4963;51.444;6.528;2023-04-06T08:40:42;9.70;99.50
9849;DHT22;4963;51.444;6.528;2023-04-06T08:43:14;9.80;99.10
9849;DHT22;4963;51.444;6.528;2023-04-06T08:45:43;9.80;98.90
9849;DHT22;4963;51.444;6.528;2023-04-06T08:48:12;9.90;99.40
9849;DHT22;4963;51.444;6.528;2023-04-06T08:50:41;9.90;99.30
9849;DHT22;4963;51.444;6.528;2023-04-06T08:53:08;9.80;98.60
9849;DHT22;4963;51.444;6.528;2023-04-06T08:55:36;9.80;99.20
9849;DHT22;4963;51.444;6.528;2023-04-06T08:58:04;9.80;99.30
9849;DHT22;4963;51.444;6.528;2023-04-06T09:00:33;9.80;99.50
9849;DHT22;4963;51.444;6.528;2023-04-06T09:03:03;9.80;99.20
9849;DHT22;4963;51.444;6.528;2023-04-06T09:05:32;9.80;98.90
9849;DHT22;4963;51.444;6.528;2023-04-06T09:08:00;9.80;98.80
9849;DHT22;4963;51.444;6.528;2023-04-06T09:10:28;9.70;98.60
9849;DHT22;4963;51.444;6.528;2023-04-06T09:13:03;9.60;98.90
9849;DHT22;4963;51.444;6.528;2023-04-06T09:15:30;9.60;99.20
9849;DHT22;4963;51.444;6.528;2023-04-06T09:17:57;9.60;99.30
9849;DHT22;4963;51.444;6.528;2023-04-06T09:20:25;9.60;99.50
9849;DHT22;4963;51.444;6.528;2023-04-06T09:22:54;9.70;99.80
9849;DHT22;4963;51.444;6.528;2023-04-06T09:25:24;9.80;99.70
9849;DHT22;4963;51.444;6.528;2023-04-06T09:27:59;9.90;99.90
9849;DHT22;4963;51.444;6.528;2023-04-06T09:30:26;10.00;98.80
9849;DHT22;4963;51.444;6.528;2023-04-06T09:32:54;10.10;98.80
9849;DHT22;4963;51.444;6.528;2023-04-06T09:35:21;10.10;98.50
9849;DHT22;4963;51.444;6.528;2023-04-06T09:37:49;10.20;98.60
9849;DHT22;4963;51.444;6.528;2023-04-06T09:40:17;10.20;98.90
9849;DHT22;4963;51.444;6.528;2023-04-06T09:42:47;10.30;98.90
9849;DHT22;4963;51.444;6.528;2023-04-06T09:45:15;10.30;98.30
9849;DHT22;4963;51.444;6.528;2023-04-06T09:47:44;10.30;98.50
9849;DHT22;4963;51.444;6.528;2023-04-06T09:50:12;10.30;98.40
9849;DHT22;4963;51.444;6.528;2023-04-06T09:52:42;10.40;98.80
9849;DHT22;4963;51.444;6.528;2023-04-06T09:55:12;10.50;98.00
9849;DHT22;4963;51.444;6.528;2023-04-06T09:57:48;10.50;97.80
9849;DHT22;4963;51.444;6.528;2023-04-06T10:00:18;10.60;97.90
9849;DHT22;4963;51.444;6.528;2023-04-06T10:02:51;10.60;98.10
9849;DHT22;4963;51.444;6.528;2023-04-06T10:05:27;10.60;96.10
9849;DHT22;4963;51.444;6.528;2023-04-06T10:07:58;10.60;96.60
9849;DHT22;4963;51.444;6.528;2023-04-06T10:10:27;10.70;96.50
9849;DHT22;4963;51.444;6.528;2023-04-06T10:12:56;10.80;96.30
9849;DHT22;4963;51.444;6.528;2023-04-06T10:15:24;10.70;95.40
9849;DHT22;4963;51.444;6.528;2023-04-06T10:17:51;10.70;96.20
9849;DHT22;4963;51.444;6.528;2023-04-06T10:20:23;10.70;96.70
9849;DHT22;4963;51.444;6.528;2023-04-06T10:22:55;10.80;96.50
9849;DHT22;4963;51.444;6.528;2023-04-06T10:25:29;10.80;96.50
9849;DHT22;4963;51.444;6.528;2023-04-06T10:28:01;10.80;96.70
9849;DHT22;4963;51.444;6.528;2023-04-06T10:30:28;10.90;97.10
9849;DHT22;4963;51.444;6.528;2023-04-06T10:32:55;11.00;96.60
9849;DHT22;4963;51.444;6.528;2023-04-06T10:35:23;11.10;96.80
9849;DHT22;4963;51.444;6.528;2023-04-06T10:37:52;11.20;96.70
9849;DHT22;4963;51.444;6.528;2023-04-06T10:40:23;11.30;96.90
9849;DHT22;4963;51.444;6.528;2023-04-06T10:42:52;11.30;96.60
9849;DHT22;4963;51.444;6.528;2023-04-06T10:45:21;11.40;97.40
9849;DHT22;4963;51.444;6.528;2023-04-06T10:47:48;11.30;97.60
9849;DHT22;4963;51.444;6.528;2023-04-06T10:50:16;11.40;98.00
9849;DHT22;4963;51.444;6.528;2023-04-06T10:52:44;11.40;98.20
9849;DHT22;4963;51.444;6.528;2023-04-06T10:55:13;11.30;98.10
9849;DHT22;4963;51.444;6.528;2023-04-06T10:57:40;11.30;98.90
9849;DHT22;4963;51.444;6.528;2023-04-06T11:00:08;11.20;98.20
9849;DHT22;4963;51.444;6.528;2023-04-06T11:02:36;11.20;98.40
9849;DHT22;4963;51.444;6.528;2023-04-06T11:05:05;11.20;98.70
9849;DHT22;4963;51.444;6.528;2023-04-06T11:07:32;11.10;98.60
9849;DHT22;4963;51.444;6.528;2023-04-06T11:09:59;11.10;98.30
9849;DHT22;4963;51.444;6.528;2023-04-06T11:12:27;11.10;98.20
9849;DHT22;4963;51.444;6.528;2023-04-06T11:14:56;11.10;98.40
9849;DHT22;4963;51.444;6.528;2023-04-06T11:17:27;11.10;98.20
9849;DHT22;4963;51.444;6.528;2023-04-06T11:19:56;11.30;98.00
9849;DHT22;4963;51.444;6.528;2023-04-06T11:22:24;11.30;97.80
9849;DHT22;4963;51.444;6.528;2023-04-06T11:24:51;11.40;97.60
9849;DHT22;4963;51.444;6.528;2023-04-06T11:27:18;11.50;97.70
9849;DHT22;4963;51.444;6.528;2023-04-06T11:29:46;11.50;97.60
9849;DHT22;4963;51.444;6.528;2023-04-06T11:32:20;11.60;97.70
9849;DHT22;4963;51.444;6.528;2023-04-06T11:34:49;11.60;97.50
9849;DHT22;4963;51.444;6.528;2023-04-06T11:37:17;11.60;98.00
9849;DHT22;4963;51.444;6.528;2023-04-06T11:39:48;11.60;98.10
9849;DHT22;4963;51.444;6.528;2023-04-06T11:42:21;11.60;98.50
9849;DHT22;4963;51.444;6.528;2023-04-06T11:44:50;11.80;98.40
9849;DHT22;4963;51.444;6.528;2023-04-06T11:47:18;11.70;98.50
9849;DHT22;4963;51.444;6.528;2023-04-06T11:49:48;11.70;98.60
9849;DHT22;4963;51.444;6.528;2023-04-06T11:52:17;11.70;98.60
9849;DHT22;4963;51.444;6.528;2023-04-06T11:54:46;11.80;98.70
9849;DHT22;4963;51.444;6.528;2023-04-06T11:57:13;11.80;98.90
9849;DHT22;4963;51.444;6.528;2023-04-06T11:59:40;11.80;98.10
9849;DHT22;4963;51.444;6.528;2023-04-06T12:02:07;11.80;97.30
9849;DHT22;4963;51.444;6.528;2023-04-06T12:04:35;11.90;97.30
9849;DHT22;4963;51.444;6.528;2023-04-06T12:07:02;11.90;97.60
9849;DHT22;4963;51.444;6.528;2023-04-06T12:09:31;12.00;97.40
9849;DHT22;4963;51.444;6.528;2023-04-06T12:11:58;11.90;97.20
9849;DHT22;4963;51.444;6.528;2023-04-06T12:14:24;11.80;97.40
9849;DHT22;4963;51.444;6.528;2023-04-06T12:16:51;11.80;97.70
9849;DHT22;4963;51.444;6.528;2023-04-06T12:19:18;11.80;97.70
9849;DHT22;4963;51.444;6.528;2023-04-06T12:21:45;11.80;98.00
9849;DHT22;4963;51.444;6.528;2023-04-06T12:24:12;11.90;98.10
9849;DHT22;4963;51.444;6.528;2023-04-06T12:26:40;11.70;98.00
9849;DHT22;4963;51.444;6.528;2023-04-06T12:29:07;11.90;98.60
9849;DHT22;4963;51.444;6.528;2023-04-06T12:31:35;12.00;98.70
9849;DHT22;4963;51.444;6.528;2023-04-06T12:34:03;12.00;98.50
9849;DHT22;4963;51.444;6.528;2023-04-06T12:36:30;12.00;98.60
9849;DHT22;4963;51.444;6.528;2023-04-06T12:38:58;12.00;98.90
9849;DHT22;4963;51.444;6.528;2023-04-06T12:41:25;12.00;98.90
9849;DHT22;4963;51.444;6.528;2023-04-06T12:43:54;12.00;98.80
9849;DHT22;4963;51.444;6.528;2023-04-06T12:46:21;11.90;98.80
9849;DHT22;4963;51.444;6.528;2023-04-06T12:48:48;11.90;98.90
9849;DHT22;4963;51.444;6.528;2023-04-06T12:51:15;11.90;99.10
9849;DHT22;4963;51.444;6.528;2023-04-06T12:53:42;11.90;99.00
9849;DHT22;4963;51.444;6.528;2023-04-06T12:56:13;11.90;98.70
9849;DHT22;4963;51.444;6.528;2023-04-06T12:58:40;11.90;99.40
9849;DHT22;4963;51.444;6.528;2023-04-06T13:01:08;11.80;99.90
9849;DHT22;4963;51.444;6.528;2023-04-06T13:03:36;11.70;99.90
9849;DHT22;4963;51.444;6.528;2023-04-06T13:06:03;11.60;99.90
9849;DHT22;4963;51.444;6.528;2023-04-06T13:08:30;11.60;99.90
9849;DHT22;4963;51.444;6.528;2023-04-06T13:10:56;11.60;99.90
9849;DHT22;4963;51.444;6.528;2023-04-06T13:13:25;11.40;99.90
9849;DHT22;4963;51.444;6.528;2023-04-06T13:15:52;11.40;99.90
9849;DHT22;4963;51.444;6.528;2023-04-06T13:18:20;11.30;99.90
9849;DHT22;4963;51.444;6.528;2023-04-06T13:20:48;11.20;99.90
9849;DHT22;4963;51.444;6.528;2023-04-06T13:23:15;11.10;99.90
9849;DHT22;4963;51.444;6.528;2023-04-06T13:25:42;11.10;99.90
9849;DHT22;4963;51.444;6.528;2023-04-06T13:28:11;11.00;99.90
9849;DHT22;4963;51.444;6.528;2023-04-06T13:30:38;11.00;99.90
9849;DHT22;4963;51.444;6.528;2023-04-06T13:33:05;10.90;99.90
9849;DHT22;4963;51.444;6.528;2023-04-06T13:35:33;10.90;99.90
9849;DHT22;4963;51.444;6.528;2023-04-06T13:38:01;10.80;99.90
9849;DHT22;4963;51.444;6.528;2023-04-06T13:40:28;10.80;99.90
9849;DHT22;4963;51.444;6.528;2023-04-06T13:42:54;10.70;99.90
9849;DHT22;4963;51.444;6.528;2023-04-06T13:45:21;10.70;99.90
9849;DHT22;4963;51.444;6.528;2023-04-06T13:47:48;10.60;99.90
9849;DHT22;4963;51.444;6.528;2023-04-06T13:50:16;10.70;99.90
9849;DHT22;4963;51.444;6.528;2023-04-06T13:52:44;10.50;99.90
9849;DHT22;4963;51.444;6.528;2023-04-06T13:55:11;10.50;99.90
9849;DHT22;4963;51.444;6.528;2023-04-06T13:57:37;10.50;99.90
9849;DHT22;4963;51.444;6.528;2023-04-06T14:00:06;10.50;99.90
9849;DHT22;4963;51.444;6.528;2023-04-06T14:02:33;10.50;99.90
9849;DHT22;4963;51.444;6.528;2023-04-06T14:04:59;10.50;99.90
9849;DHT22;4963;51.444;6.528;2023-04-06T14:07:26;10.50;99.90
9849;DHT22;4963;51.444;6.528;2023-04-06T14:09:54;10.40;99.90
9849;DHT22;4963;51.444;6.528;2023-04-06T14:12:21;10.40;99.90
9849;DHT22;4963;51.444;6.528;2023-04-06T14:14:48;10.50;99.90
9849;DHT22;4963;51.444;6.528;2023-04-06T14:17:15;10.10;99.90
9849;DHT22;4963;51.444;6.528;2023-04-06T14:19:42;10.30;99.90
9849;DHT22;4963;51.444;6.528;2023-04-06T14:22:09;10.20;99.90
9849;DHT22;4963;51.444;6.528;2023-04-06T14:24:36;10.20;99.90
9849;DHT22;4963;51.444;6.528;2023-04-06T14:27:05;10.10;99.90
9849;DHT22;4963;51.444;6.528;2023-04-06T14:29:31;10.10;99.90
9849;DHT22;4963;51.444;6.528;2023-04-06T14:31:58;10.10;99.90
9849;DHT22;4963;51.444;6.528;2023-04-06T14:34:26;10.00;99.90
9849;DHT22;4963;51.444;6.528;2023-04-06T14:36:53;10.00;99.90
9849;DHT22;4963;51.444;6.528;2023-04-06T14:39:19;9.90;99.90
9849;DHT22;4963;51.444;6.528;2023-04-06T14:41:46;9.90;99.90
9849;DHT22;4963;51.444;6.528;2023-04-06T14:44:15;9.90;99.90
9849;DHT22;4963;51.444;6.528;2023-04-06T14:46:42;9.90;99.90
9849;DHT22;4963;51.444;6.528;2023-04-06T14:49:09;9.90;99.90
9849;DHT22;4963;51.444;6.528;2023-04-06T14:51:35;9.90;99.90
9849;DHT22;4963;51.444;6.528;2023-04-06T14:54:03;9.90;99.90
9849;DHT22;4963;51.444;6.528;2023-04-06T14:56:30;9.80;99.90
9849;DHT22;4963;51.444;6.528;2023-04-06T14:58:58;9.70;99.90
9849;DHT22;4963;51.444;6.528;2023-04-06T15:01:28;9.70;99.90
9849;DHT22;4963;51.444;6.528;2023-04-06T15:03:55;9.60;99.90
9849;DHT22;4963;51.444;6.528;2023-04-06T15:06:21;9.80;99.90
9849;DHT22;4963;51.444;6.528;2023-04-06T15:08:49;9.60;99.90
9849;DHT22;4963;51.444;6.528;2023-04-06T15:11:15;9.60;99.90
9849;DHT22;4963;51.444;6.528;2023-04-06T15:13:42;9.60;99.90
9849;DHT22;4963;51.444;6.528;2023-04-06T15:16:09;9.60;99.90
9849;DHT22;4963;51.444;6.528;2023-04-06T15:18:37;9.60;99.90
9849;DHT22;4963;51.444;6.528;2023-04-06T15:21:04;9.50;99.90
9849;DHT22;4963;51.444;6.528;2023-04-06T15:23:31;9.50;99.90
9849;DHT22;4963;51.444;6.528;2023-04-06T15:25:59;9.50;99.90
9849;DHT22;4963;51.444;6.528;2023-04-06T15:28:26;9.40;99.90
9849;DHT22;4963;51.444;6.528;2023-04-06T15:30:54;9.50;99.90
9849;DHT22;4963;51.444;6.528;2023-04-06T15:33:22;9.50;99.90
9849;DHT22;4963;51.444;6.528;2023-04-06T15:35:51;9.50;99.90
9849;DHT22;4963;51.444;6.528;2023-04-06T15:38:17;9.50;99.90
9849;DHT22;4963;51.444;6.528;2023-04-06T15:40:47;9.50;99.90
9849;DHT22;4963;51.444;6.528;2023-04-06T15:43:15;9.40;99.90
9849;DHT22;4963;51.444;6.528;2023-04-06T15:45:41;9.40;99.90
9849;DHT22;4963;51.444;6.528;2023-04-06T15:48:08;9.40;99.90
9849;DHT22;4963;51.444;6.528;2023-04-06T15:50:36;9.40;99.90
9849;DHT22;4963;51.444;6.528;2023-04-06T15:53:04;9.30;99.90
9849;DHT22;4963;51.444;6.528;2023-04-06T15:55:31;9.30;99.90
9849;DHT22;4963;51.444;6.528;2023-04-06T15:57:58;9.20;99.90
9849;DHT22;4963;51.444;6.528;2023-04-06T16:00:25;9.20;99.90
9849;DHT22;4963;51.444;6.528;2023-04-06T16:02:53;9.10;99.90
9849;DHT22;4963;51.444;6.528;2023-04-06T16:05:21;9.10;99.90
9849;DHT22;4963;51.444;6.528;2023-04-06T16:07:48;9.00;99.90
9849;DHT22;4963;51.444;6.528;2023-04-06T16:10:16;9.00;99.90
9849;DHT22;4963;51.444;6.528;2023-04-06T16:12:43;9.00;99.90